sensor_id;sensor_type;location;lat;lon;timestamp;P1;durP1;ratioP1;P2;durP2;ratioP2
66585;SDS011;53444;45.822;16.092;2023-04-03T00:00:05;7.07;;;2.80;;
66585;SDS011;53444;45.822;16.092;2023-04-03T00:02:33;7.37;;;3.40;;
66585;SDS011;53444;45.822;16.092;2023-04-03T00:05:01;2.95;;;2.10;;
66585;SDS011;53444;45.822;16.092;2023-04-03T00:07:28;3.85;;;2.22;;
66585;SDS011;53444;45.822;16.092;2023-04-03T00:09:54;4.10;;;2.40;;
66585;SDS011;53444;45.822;16.092;2023-04-03T00:12:21;3.75;;;2.38;;
66585;SDS011;53444;45.822;16.092;2023-04-03T00:14:48;3.77;;;2.27;;
66585;SDS011;53444;45.822;16.092;2023-04-03T00:17:14;4.13;;;2.28;;
66585;SDS011;53444;45.822;16.092;2023-04-03T00:19:41;3.53;;;2.03;;
66585;SDS011;53444;45.822;16.092;2023-04-03T00:22:09;4.40;;;2.55;;
66585;SDS011;53444;45.822;16.092;2023-04-03T00:24:36;3.35;;;2.35;;
66585;SDS011;53444;45.822;16.092;2023-04-03T00:27:02;2.97;;;1.90;;
66585;SDS011;53444;45.822;16.092;2023-04-03T00:29:29;3.80;;;2.25;;
66585;SDS011;53444;45.822;16.092;2023-04-03T00:31:56;3.90;;;2.50;;
66585;SDS011;53444;45.822;16.092;2023-04-03T00:34:22;4.93;;;2.30;;
66585;SDS011;53444;45.822;16.092;2023-04-03T00:36:51;3.72;;;2.05;;
66585;SDS011;53444;45.822;16.092;2023-04-03T00:39:19;3.97;;;2.20;;
66585;SDS011;53444;45.822;16.092;2023-04-03T00:41:46;3.92;;;2.40;;
66585;SDS011;53444;45.822;16.092;2023-04-03T00:44:20;3.88;;;2.30;;
66585;SDS011;53444;45.822;16.092;2023-04-03T00:46:47;3.67;;;2.10;;
66585;SDS011;53444;45.822;16.092;2023-04-03T00:49:13;3.50;;;2.20;;
66585;SDS011;53444;45.822;16.092;2023-04-03T00:51:40;5.47;;;2.27;;
66585;SDS011;53444;45.822;16.092;2023-04-03T00:54:07;3.42;;;2.17;;
66585;SDS011;53444;45.822;16.092;2023-04-03T00:56:35;3.88;;;2.35;;
66585;SDS011;53444;45.822;16.092;2023-04-03T00:59:04;3.83;;;2.20;;
66585;SDS011;53444;45.822;16.092;2023-04-03T01:01:34;4.18;;;2.33;;
66585;SDS011;53444;45.822;16.092;2023-04-03T01:04:02;4.03;;;2.30;;
66585;SDS011;53444;45.822;16.092;2023-04-03T01:06:32;3.83;;;2.15;;
66585;SDS011;53444;45.822;16.092;2023-04-03T01:09:02;4.03;;;2.05;;
66585;SDS011;53444;45.822;16.092;2023-04-03T01:11:30;3.33;;;2.10;;
66585;SDS011;53444;45.822;16.092;2023-04-03T01:13:58;3.40;;;1.92;;
66585;SDS011;53444;45.822;16.092;2023-04-03T01:16:26;5.27;;;2.17;;
66585;SDS011;53444;45.822;16.092;2023-04-03T01:18:56;3.67;;;2.33;;
66585;SDS011;53444;45.822;16.092;2023-04-03T01:21:36;5.70;;;2.33;;
66585;SDS011;53444;45.822;16.092;2023-04-03T01:24:31;3.08;;;1.95;;
66585;SDS011;53444;45.822;16.092;2023-04-03T01:27:00;3.95;;;1.80;;
66585;SDS011;53444;45.822;16.092;2023-04-03T01:29:30;3.83;;;2.07;;
66585;SDS011;53444;45.822;16.092;2023-04-03T01:31:58;3.22;;;1.75;;
66585;SDS011;53444;45.822;16.092;2023-04-03T01:34:26;2.58;;;1.60;;
66585;SDS011;53444;45.822;16.092;2023-04-03T01:36:54;3.72;;;1.90;;
66585;SDS011;53444;45.822;16.092;2023-04-03T01:39:21;4.50;;;1.70;;
66585;SDS011;53444;45.822;16.092;2023-04-03T01:41:48;3.37;;;1.80;;
66585;SDS011;53444;45.822;16.092;2023-04-03T01:44:15;2.53;;;1.50;;
66585;SDS011;53444;45.822;16.092;2023-04-03T01:46:42;3.67;;;1.45;;
66585;SDS011;53444;45.822;16.092;2023-04-03T01:49:10;3.00;;;1.60;;
66585;SDS011;53444;45.822;16.092;2023-04-03T01:51:37;2.45;;;1.35;;
66585;SDS011;53444;45.822;16.092;2023-04-03T01:54:04;5.37;;;1.50;;
66585;SDS011;53444;45.822;16.092;2023-04-03T01:56:30;2.80;;;1.50;;
66585;SDS011;53444;45.822;16.092;2023-04-03T01:58:57;2.40;;;1.30;;
66585;SDS011;53444;45.822;16.092;2023-04-03T02:01:24;2.15;;;1.40;;
66585;SDS011;53444;45.822;16.092;2023-04-03T02:03:51;2.47;;;1.50;;
66585;SDS011;53444;45.822;16.092;2023-04-03T02:06:19;1.97;;;1.07;;
66585;SDS011;53444;45.822;16.092;2023-04-03T02:08:46;2.33;;;1.13;;
66585;SDS011;53444;45.822;16.092;2023-04-03T02:11:13;2.28;;;1.40;;
66585;SDS011;53444;45.822;16.092;2023-04-03T02:13:40;2.28;;;1.15;;
66585;SDS011;53444;45.822;16.092;2023-04-03T02:16:07;2.70;;;1.52;;
66585;SDS011;53444;45.822;16.092;2023-04-03T02:18:35;1.60;;;1.10;;
66585;SDS011;53444;45.822;16.092;2023-04-03T02:21:02;2.05;;;1.05;;
66585;SDS011;53444;45.822;16.092;2023-04-03T02:23:30;3.08;;;1.10;;
66585;SDS011;53444;45.822;16.092;2023-04-03T02:26:02;2.10;;;1.33;;
66585;SDS011;53444;45.822;16.092;2023-04-03T02:28:33;2.30;;;1.38;;
66585;SDS011;53444;45.822;16.092;2023-04-03T02:31:01;2.57;;;1.10;;
66585;SDS011;53444;45.822;16.092;2023-04-03T02:33:28;1.65;;;0.98;;
66585;SDS011;53444;45.822;16.092;2023-04-03T02:35:55;2.22;;;1.30;;
66585;SDS011;53444;45.822;16.092;2023-04-03T02:38:22;3.35;;;1.15;;
66585;SDS011;53444;45.822;16.092;2023-04-03T02:40:50;2.33;;;1.08;;
66585;SDS011;53444;45.822;16.092;2023-04-03T02:43:17;2.23;;;1.30;;
66585;SDS011;53444;45.822;16.092;2023-04-03T02:45:44;2.05;;;1.15;;
66585;SDS011;53444;45.822;16.092;2023-04-03T02:48:11;2.05;;;1.20;;
66585;SDS011;53444;45.822;16.092;2023-04-03T02:50:37;1.70;;;1.23;;
66585;SDS011;53444;45.822;16.092;2023-04-03T02:53:04;2.22;;;1.20;;
66585;SDS011;53444;45.822;16.092;2023-04-03T02:55:31;2.03;;;1.10;;
66585;SDS011;53444;45.822;16.092;2023-04-03T02:57:58;1.50;;;1.05;;
66585;SDS011;53444;45.822;16.092;2023-04-03T03:03:00;2.17;;;1.20;;
66585;SDS011;53444;45.822;16.092;2023-04-03T03:05:27;1.30;;;0.90;;
66585;SDS011;53444;45.822;16.092;2023-04-03T03:07:54;2.30;;;1.20;;
66585;SDS011;53444;45.822;16.092;2023-04-03T03:10:21;2.30;;;1.30;;
66585;SDS011;53444;45.822;16.092;2023-04-03T03:12:48;2.25;;;1.20;;
66585;SDS011;53444;45.822;16.092;2023-04-03T03:15:16;2.92;;;0.93;;
66585;SDS011;53444;45.822;16.092;2023-04-03T03:17:44;2.40;;;1.20;;
66585;SDS011;53444;45.822;16.092;2023-04-03T03:20:12;2.37;;;1.20;;
66585;SDS011;53444;45.822;16.092;2023-04-03T03:22:40;3.13;;;1.55;;
66585;SDS011;53444;45.822;16.092;2023-04-03T03:25:07;2.00;;;1.13;;
66585;SDS011;53444;45.822;16.092;2023-04-03T03:27:34;1.67;;;1.17;;
66585;SDS011;53444;45.822;16.092;2023-04-03T03:30:01;1.77;;;1.00;;
66585;SDS011;53444;45.822;16.092;2023-04-03T03:32:29;2.33;;;1.30;;
66585;SDS011;53444;45.822;16.092;2023-04-03T03:34:56;1.80;;;0.95;;
66585;SDS011;53444;45.822;16.092;2023-04-03T03:37:22;2.85;;;1.27;;
66585;SDS011;53444;45.822;16.092;2023-04-03T03:39:49;1.92;;;1.10;;
66585;SDS011;53444;45.822;16.092;2023-04-03T03:42:16;2.03;;;0.93;;
66585;SDS011;53444;45.822;16.092;2023-04-03T03:44:42;1.57;;;0.90;;
66585;SDS011;53444;45.822;16.092;2023-04-03T03:47:09;2.05;;;1.25;;
66585;SDS011;53444;45.822;16.092;2023-04-03T03:49:37;1.75;;;1.15;;
66585;SDS011;53444;45.822;16.092;2023-04-03T03:52:04;2.30;;;1.40;;
66585;SDS011;53444;45.822;16.092;2023-04-03T03:54:31;2.80;;;1.10;;
66585;SDS011;53444;45.822;16.092;2023-04-03T03:56:57;1.77;;;1.23;;
66585;SDS011;53444;45.822;16.092;2023-04-03T03:59:24;3.22;;;1.27;;
66585;SDS011;53444;45.822;16.092;2023-04-03T04:01:51;2.72;;;1.23;;
66585;SDS011;53444;45.822;16.092;2023-04-03T04:04:17;2.10;;;1.02;;
66585;SDS011;53444;45.822;16.092;2023-04-03T04:06:46;2.58;;;1.20;;
66585;SDS011;53444;45.822;16.092;2023-04-03T04:09:13;1.73;;;1.10;;
66585;SDS011;53444;45.822;16.092;2023-04-03T04:11:39;1.63;;;1.17;;
66585;SDS011;53444;45.822;16.092;2023-04-03T04:14:06;2.22;;;1.15;;
66585;SDS011;53444;45.822;16.092;2023-04-03T04:16:35;2.25;;;1.30;;
66585;SDS011;53444;45.822;16.092;2023-04-03T04:19:02;2.13;;;1.15;;
66585;SDS011;53444;45.822;16.092;2023-04-03T04:21:28;3.83;;;1.70;;
66585;SDS011;53444;45.822;16.092;2023-04-03T04:23:56;4.18;;;1.35;;
66585;SDS011;53444;45.822;16.092;2023-04-03T04:26:23;1.52;;;1.05;;
66585;SDS011;53444;45.822;16.092;2023-04-03T04:28:50;2.33;;;1.13;;
66585;SDS011;53444;45.822;16.092;2023-04-03T04:31:17;3.85;;;1.50;;
66585;SDS011;53444;45.822;16.092;2023-04-03T04:33:43;2.07;;;1.10;;
66585;SDS011;53444;45.822;16.092;2023-04-03T04:36:10;2.78;;;1.40;;
66585;SDS011;53444;45.822;16.092;2023-04-03T04:38:41;1.92;;;1.20;;
66585;SDS011;53444;45.822;16.092;2023-04-03T04:41:10;2.47;;;1.42;;
66585;SDS011;53444;45.822;16.092;2023-04-03T04:43:37;2.80;;;1.35;;
66585;SDS011;53444;45.822;16.092;2023-04-03T04:46:11;1.90;;;1.30;;
66585;SDS011;53444;45.822;16.092;2023-04-03T04:48:52;2.08;;;1.40;;
66585;SDS011;53444;45.822;16.092;2023-04-03T04:51:23;2.80;;;1.52;;
66585;SDS011;53444;45.822;16.092;2023-04-03T04:54:03;2.40;;;1.10;;
66585;SDS011;53444;45.822;16.092;2023-04-03T04:56:33;2.47;;;1.60;;
66585;SDS011;53444;45.822;16.092;2023-04-03T04:59:14;2.40;;;1.47;;
66585;SDS011;53444;45.822;16.092;2023-04-03T05:02:04;3.25;;;1.60;;
66585;SDS011;53444;45.822;16.092;2023-04-03T05:04:54;2.92;;;1.67;;
66585;SDS011;53444;45.822;16.092;2023-04-03T05:07:29;2.13;;;0.82;;
66585;SDS011;53444;45.822;16.092;2023-04-03T05:10:09;2.92;;;1.40;;
66585;SDS011;53444;45.822;16.092;2023-04-03T05:12:54;2.97;;;1.40;;
66585;SDS011;53444;45.822;16.092;2023-04-03T05:15:21;3.53;;;1.45;;
66585;SDS011;53444;45.822;16.092;2023-04-03T05:17:51;2.40;;;1.45;;
66585;SDS011;53444;45.822;16.092;2023-04-03T05:20:19;2.63;;;1.60;;
66585;SDS011;53444;45.822;16.092;2023-04-03T05:23:12;2.50;;;1.50;;
66585;SDS011;53444;45.822;16.092;2023-04-03T05:25:43;4.27;;;1.80;;
66585;SDS011;53444;45.822;16.092;2023-04-03T05:28:13;2.22;;;1.38;;
66585;SDS011;53444;45.822;16.092;2023-04-03T05:30:40;9.40;;;3.15;;
66585;SDS011;53444;45.822;16.092;2023-04-03T05:33:07;2.10;;;1.15;;
66585;SDS011;53444;45.822;16.092;2023-04-03T05:35:35;3.15;;;1.50;;
66585;SDS011;53444;45.822;16.092;2023-04-03T05:38:04;4.50;;;1.90;;
66585;SDS011;53444;45.822;16.092;2023-04-03T05:40:34;3.55;;;1.90;;
66585;SDS011;53444;45.822;16.092;2023-04-03T05:43:05;2.33;;;1.45;;
66585;SDS011;53444;45.822;16.092;2023-04-03T05:45:34;3.92;;;2.33;;
66585;SDS011;53444;45.822;16.092;2023-04-03T05:48:01;5.25;;;2.60;;
66585;SDS011;53444;45.822;16.092;2023-04-03T05:50:28;3.90;;;2.05;;
66585;SDS011;53444;45.822;16.092;2023-04-03T05:52:56;3.13;;;1.67;;
66585;SDS011;53444;45.822;16.092;2023-04-03T05:55:24;3.95;;;1.45;;
66585;SDS011;53444;45.822;16.092;2023-04-03T05:57:51;2.92;;;1.65;;
66585;SDS011;53444;45.822;16.092;2023-04-03T06:00:18;2.42;;;1.40;;
66585;SDS011;53444;45.822;16.092;2023-04-03T06:02:47;3.58;;;1.85;;
66585;SDS011;53444;45.822;16.092;2023-04-03T06:05:19;3.17;;;1.67;;
66585;SDS011;53444;45.822;16.092;2023-04-03T06:07:49;2.47;;;1.40;;
66585;SDS011;53444;45.822;16.092;2023-04-03T06:10:16;3.03;;;1.42;;
66585;SDS011;53444;45.822;16.092;2023-04-03T06:12:45;3.83;;;1.70;;
66585;SDS011;53444;45.822;16.092;2023-04-03T06:15:16;2.42;;;1.65;;
66585;SDS011;53444;45.822;16.092;2023-04-03T06:18:09;2.28;;;1.55;;
66585;SDS011;53444;45.822;16.092;2023-04-03T06:20:46;2.72;;;1.45;;
66585;SDS011;53444;45.822;16.092;2023-04-03T06:23:26;2.92;;;1.85;;
66585;SDS011;53444;45.822;16.092;2023-04-03T06:26:18;2.85;;;1.75;;
66585;SDS011;53444;45.822;16.092;2023-04-03T06:29:24;2.10;;;1.20;;
66585;SDS011;53444;45.822;16.092;2023-04-03T06:31:51;2.33;;;1.33;;
66585;SDS011;53444;45.822;16.092;2023-04-03T06:34:22;2.13;;;1.40;;
66585;SDS011;53444;45.822;16.092;2023-04-03T06:36:49;2.15;;;1.50;;
66585;SDS011;53444;45.822;16.092;2023-04-03T06:39:18;3.33;;;1.50;;
66585;SDS011;53444;45.822;16.092;2023-04-03T06:41:48;2.80;;;1.83;;
66585;SDS011;53444;45.822;16.092;2023-04-03T06:44:18;2.25;;;1.50;;
66585;SDS011;53444;45.822;16.092;2023-04-03T06:46:48;2.53;;;1.38;;
66585;SDS011;53444;45.822;16.092;2023-04-03T06:49:17;2.28;;;1.40;;
66585;SDS011;53444;45.822;16.092;2023-04-03T06:51:45;2.70;;;1.45;;
66585;SDS011;53444;45.822;16.092;2023-04-03T06:54:13;3.20;;;1.80;;
66585;SDS011;53444;45.822;16.092;2023-04-03T06:56:40;3.15;;;1.80;;
66585;SDS011;53444;45.822;16.092;2023-04-03T06:59:16;2.92;;;1.73;;
66585;SDS011;53444;45.822;16.092;2023-04-03T07:01:48;2.35;;;1.88;;
66585;SDS011;53444;45.822;16.092;2023-04-03T07:04:21;2.67;;;1.50;;
66585;SDS011;53444;45.822;16.092;2023-04-03T07:07:01;2.00;;;1.50;;
66585;SDS011;53444;45.822;16.092;2023-04-03T07:09:29;4.60;;;1.80;;
66585;SDS011;53444;45.822;16.092;2023-04-03T07:11:56;3.65;;;2.22;;
66585;SDS011;53444;45.822;16.092;2023-04-03T07:14:23;6.93;;;3.20;;
66585;SDS011;53444;45.822;16.092;2023-04-03T07:16:51;5.93;;;3.15;;
66585;SDS011;53444;45.822;16.092;2023-04-03T07:19:18;2.38;;;1.85;;
66585;SDS011;53444;45.822;16.092;2023-04-03T07:21:49;5.07;;;3.08;;
66585;SDS011;53444;45.822;16.092;2023-04-03T07:24:18;3.92;;;2.58;;
66585;SDS011;53444;45.822;16.092;2023-04-03T07:26:48;5.18;;;2.47;;
66585;SDS011;53444;45.822;16.092;2023-04-03T07:29:16;3.03;;;2.20;;
66585;SDS011;53444;45.822;16.092;2023-04-03T07:31:53;3.77;;;2.67;;
66585;SDS011;53444;45.822;16.092;2023-04-03T07:34:22;3.53;;;2.15;;
66585;SDS011;53444;45.822;16.092;2023-04-03T07:36:50;2.65;;;1.55;;
66585;SDS011;53444;45.822;16.092;2023-04-03T07:39:20;4.53;;;2.22;;
66585;SDS011;53444;45.822;16.092;2023-04-03T07:41:48;3.33;;;1.80;;
66585;SDS011;53444;45.822;16.092;2023-04-03T07:44:15;2.00;;;1.40;;
66585;SDS011;53444;45.822;16.092;2023-04-03T07:46:45;2.00;;;1.27;;
66585;SDS011;53444;45.822;16.092;2023-04-03T07:50:33;2.08;;;1.50;;
66585;SDS011;53444;45.822;16.092;2023-04-03T07:52:05;4.00;;;1.92;;
66585;SDS011;53444;45.822;16.092;2023-04-03T07:54:35;2.17;;;1.50;;
66585;SDS011;53444;45.822;16.092;2023-04-03T07:57:02;6.63;;;3.17;;
66585;SDS011;53444;45.822;16.092;2023-04-03T07:59:30;4.22;;;2.10;;
66585;SDS011;53444;45.822;16.092;2023-04-03T08:01:57;4.03;;;2.08;;
66585;SDS011;53444;45.822;16.092;2023-04-03T08:04:24;5.20;;;2.33;;
66585;SDS011;53444;45.822;16.092;2023-04-03T08:06:52;2.88;;;1.90;;
66585;SDS011;53444;45.822;16.092;2023-04-03T08:09:19;3.88;;;2.78;;
66585;SDS011;53444;45.822;16.092;2023-04-03T08:11:48;6.30;;;2.15;;
66585;SDS011;53444;45.822;16.092;2023-04-03T08:14:19;3.22;;;1.77;;
66585;SDS011;53444;45.822;16.092;2023-04-03T08:16:47;5.07;;;2.50;;
66585;SDS011;53444;45.822;16.092;2023-04-03T08:19:17;3.92;;;2.40;;
66585;SDS011;53444;45.822;16.092;2023-04-03T08:21:44;3.33;;;1.67;;
66585;SDS011;53444;45.822;16.092;2023-04-03T08:24:12;2.83;;;1.42;;
66585;SDS011;53444;45.822;16.092;2023-04-03T08:26:40;2.25;;;1.63;;
66585;SDS011;53444;45.822;16.092;2023-04-03T08:29:09;2.63;;;1.38;;
66585;SDS011;53444;45.822;16.092;2023-04-03T08:31:36;2.20;;;1.52;;
66585;SDS011;53444;45.822;16.092;2023-04-03T08:34:03;2.70;;;1.50;;
66585;SDS011;53444;45.822;16.092;2023-04-03T08:36:30;3.33;;;1.52;;
66585;SDS011;53444;45.822;16.092;2023-04-03T08:39:01;2.88;;;1.50;;
66585;SDS011;53444;45.822;16.092;2023-04-03T08:41:39;3.60;;;1.90;;
66585;SDS011;53444;45.822;16.092;2023-04-03T08:47:04;2.23;;;1.53;;
66585;SDS011;53444;45.822;16.092;2023-04-03T08:49:48;2.53;;;1.60;;
66585;SDS011;53444;45.822;16.092;2023-04-03T08:52:19;3.20;;;2.40;;
66585;SDS011;53444;45.822;16.092;2023-04-03T08:54:54;3.13;;;2.13;;
66585;SDS011;53444;45.822;16.092;2023-04-03T08:57:28;2.30;;;1.27;;
66585;SDS011;53444;45.822;16.092;2023-04-03T08:59:59;2.15;;;1.60;;
66585;SDS011;53444;45.822;16.092;2023-04-03T09:02:45;2.53;;;1.80;;
66585;SDS011;53444;45.822;16.092;2023-04-03T09:05:18;2.20;;;1.67;;
66585;SDS011;53444;45.822;16.092;2023-04-03T09:07:49;3.35;;;1.45;;
66585;SDS011;53444;45.822;16.092;2023-04-03T09:10:27;1.90;;;1.35;;
66585;SDS011;53444;45.822;16.092;2023-04-03T09:12:59;2.03;;;1.50;;
66585;SDS011;53444;45.822;16.092;2023-04-03T09:15:36;2.40;;;1.38;;
66585;SDS011;53444;45.822;16.092;2023-04-03T09:18:10;2.05;;;1.30;;
66585;SDS011;53444;45.822;16.092;2023-04-03T09:20:52;2.33;;;1.48;;
66585;SDS011;53444;45.822;16.092;2023-04-03T09:23:31;4.15;;;2.13;;
66585;SDS011;53444;45.822;16.092;2023-04-03T09:26:13;3.67;;;1.73;;
66585;SDS011;53444;45.822;16.092;2023-04-03T09:28:49;2.67;;;1.52;;
66585;SDS011;53444;45.822;16.092;2023-04-03T09:31:23;3.47;;;1.58;;
66585;SDS011;53444;45.822;16.092;2023-04-03T09:33:52;3.03;;;2.00;;
66585;SDS011;53444;45.822;16.092;2023-04-03T09:39:10;2.72;;;1.70;;
66585;SDS011;53444;45.822;16.092;2023-04-03T09:41:39;5.28;;;3.15;;
66585;SDS011;53444;45.822;16.092;2023-04-03T09:44:20;4.03;;;2.20;;
66585;SDS011;53444;45.822;16.092;2023-04-03T09:46:53;2.38;;;1.60;;
66585;SDS011;53444;45.822;16.092;2023-04-03T09:49:23;2.38;;;1.40;;
66585;SDS011;53444;45.822;16.092;2023-04-03T09:52:00;2.10;;;1.30;;
66585;SDS011;53444;45.822;16.092;2023-04-03T09:54:47;4.43;;;1.60;;
66585;SDS011;53444;45.822;16.092;2023-04-03T09:57:16;3.15;;;1.35;;
66585;SDS011;53444;45.822;16.092;2023-04-03T09:59:47;2.60;;;1.77;;
66585;SDS011;53444;45.822;16.092;2023-04-03T10:02:34;2.42;;;1.45;;
66585;SDS011;53444;45.822;16.092;2023-04-03T10:05:03;3.00;;;1.73;;
66585;SDS011;53444;45.822;16.092;2023-04-03T10:07:51;1.77;;;1.25;;
66585;SDS011;53444;45.822;16.092;2023-04-03T10:10:40;3.72;;;1.67;;
66585;SDS011;53444;45.822;16.092;2023-04-03T10:13:10;3.97;;;1.70;;
66585;SDS011;53444;45.822;16.092;2023-04-03T10:15:41;2.42;;;1.60;;
66585;SDS011;53444;45.822;16.092;2023-04-03T10:18:19;2.30;;;1.85;;
66585;SDS011;53444;45.822;16.092;2023-04-03T10:20:56;2.65;;;1.67;;
66585;SDS011;53444;45.822;16.092;2023-04-03T10:23:37;1.95;;;1.30;;
66585;SDS011;53444;45.822;16.092;2023-04-03T10:26:13;2.90;;;1.70;;
66585;SDS011;53444;45.822;16.092;2023-04-03T10:28:56;2.95;;;1.70;;
66585;SDS011;53444;45.822;16.092;2023-04-03T10:31:40;2.87;;;1.80;;
66585;SDS011;53444;45.822;16.092;2023-04-03T10:34:20;3.35;;;2.00;;
66585;SDS011;53444;45.822;16.092;2023-04-03T10:36:52;4.50;;;1.80;;
66585;SDS011;53444;45.822;16.092;2023-04-03T10:39:30;3.10;;;2.03;;
66585;SDS011;53444;45.822;16.092;2023-04-03T10:42:06;2.33;;;1.48;;
66585;SDS011;53444;45.822;16.092;2023-04-03T10:44:49;3.50;;;1.88;;
66585;SDS011;53444;45.822;16.092;2023-04-03T10:47:30;3.30;;;1.80;;
66585;SDS011;53444;45.822;16.092;2023-04-03T10:50:05;3.20;;;1.85;;
66585;SDS011;53444;45.822;16.092;2023-04-03T10:52:50;3.80;;;2.08;;
66585;SDS011;53444;45.822;16.092;2023-04-03T10:55:26;6.05;;;3.30;;
66585;SDS011;53444;45.822;16.092;2023-04-03T10:58:05;3.55;;;2.28;;
66585;SDS011;53444;45.822;16.092;2023-04-03T11:00:45;5.63;;;2.90;;
66585;SDS011;53444;45.822;16.092;2023-04-03T11:03:27;4.65;;;2.97;;
66585;SDS011;53444;45.822;16.092;2023-04-03T11:05:59;8.77;;;4.95;;
66585;SDS011;53444;45.822;16.092;2023-04-03T11:08:37;4.65;;;2.78;;
66585;SDS011;53444;45.822;16.092;2023-04-03T11:11:19;3.38;;;2.45;;
66585;SDS011;53444;45.822;16.092;2023-04-03T11:13:53;3.97;;;2.40;;
66585;SDS011;53444;45.822;16.092;2023-04-03T11:16:33;2.55;;;2.00;;
66585;SDS011;53444;45.822;16.092;2023-04-03T11:19:08;2.83;;;1.80;;
66585;SDS011;53444;45.822;16.092;2023-04-03T11:21:53;3.70;;;2.20;;
66585;SDS011;53444;45.822;16.092;2023-04-03T11:24:29;3.63;;;2.05;;
66585;SDS011;53444;45.822;16.092;2023-04-03T11:27:03;2.38;;;1.88;;
66585;SDS011;53444;45.822;16.092;2023-04-03T11:29:41;4.28;;;2.13;;
66585;SDS011;53444;45.822;16.092;2023-04-03T11:32:35;3.53;;;2.28;;
66585;SDS011;53444;45.822;16.092;2023-04-03T11:35:20;4.40;;;2.05;;
66585;SDS011;53444;45.822;16.092;2023-04-03T11:37:53;3.17;;;1.90;;
66585;SDS011;53444;45.822;16.092;2023-04-03T11:40:24;3.15;;;1.98;;
66585;SDS011;53444;45.822;16.092;2023-04-03T11:42:55;4.10;;;1.70;;
66585;SDS011;53444;45.822;16.092;2023-04-03T11:45:36;3.55;;;2.08;;
66585;SDS011;53444;45.822;16.092;2023-04-03T11:51:38;2.95;;;2.10;;
66585;SDS011;53444;45.822;16.092;2023-04-03T12:09:23;4.28;;;2.75;;
66585;SDS011;53444;45.822;16.092;2023-04-03T12:18:53;4.20;;;2.38;;
66585;SDS011;53444;45.822;16.092;2023-04-03T12:24:35;5.35;;;1.95;;
66585;SDS011;53444;45.822;16.092;2023-04-03T12:29:55;3.67;;;2.38;;
66585;SDS011;53444;45.822;16.092;2023-04-03T12:32:31;8.75;;;4.13;;
66585;SDS011;53444;45.822;16.092;2023-04-03T12:35:13;3.65;;;2.47;;
66585;SDS011;53444;45.822;16.092;2023-04-03T12:40:56;3.47;;;2.40;;
66585;SDS011;53444;45.822;16.092;2023-04-03T12:43:30;3.35;;;2.35;;
66585;SDS011;53444;45.822;16.092;2023-04-03T12:46:09;5.15;;;2.42;;
66585;SDS011;53444;45.822;16.092;2023-04-03T12:48:46;4.25;;;2.13;;
66585;SDS011;53444;45.822;16.092;2023-04-03T12:51:34;4.38;;;2.15;;
66585;SDS011;53444;45.822;16.092;2023-04-03T12:54:12;3.90;;;2.15;;
66585;SDS011;53444;45.822;16.092;2023-04-03T12:56:42;3.85;;;1.85;;
66585;SDS011;53444;45.822;16.092;2023-04-03T12:59:13;5.35;;;1.98;;
66585;SDS011;53444;45.822;16.092;2023-04-03T13:01:41;2.10;;;1.65;;
66585;SDS011;53444;45.822;16.092;2023-04-03T13:04:09;2.88;;;1.80;;
66585;SDS011;53444;45.822;16.092;2023-04-03T13:06:39;3.67;;;2.05;;
66585;SDS011;53444;45.822;16.092;2023-04-03T13:09:17;3.50;;;2.40;;
66585;SDS011;53444;45.822;16.092;2023-04-03T13:11:47;4.63;;;1.90;;
66585;SDS011;53444;45.822;16.092;2023-04-03T13:14:17;4.43;;;2.25;;
66585;SDS011;53444;45.822;16.092;2023-04-03T13:16:52;3.42;;;2.20;;
66585;SDS011;53444;45.822;16.092;2023-04-03T13:19:22;5.47;;;2.80;;
66585;SDS011;53444;45.822;16.092;2023-04-03T13:21:51;2.53;;;1.85;;
66585;SDS011;53444;45.822;16.092;2023-04-03T13:24:23;3.72;;;2.72;;
66585;SDS011;53444;45.822;16.092;2023-04-03T13:26:50;4.00;;;2.58;;
66585;SDS011;53444;45.822;16.092;2023-04-03T13:29:20;4.68;;;2.53;;
66585;SDS011;53444;45.822;16.092;2023-04-03T13:31:51;6.60;;;2.58;;
66585;SDS011;53444;45.822;16.092;2023-04-03T13:34:19;6.28;;;3.40;;
66585;SDS011;53444;45.822;16.092;2023-04-03T13:36:56;7.10;;;3.00;;
66585;SDS011;53444;45.822;16.092;2023-04-03T13:39:25;12.57;;;4.43;;
66585;SDS011;53444;45.822;16.092;2023-04-03T13:41:54;13.73;;;4.28;;
66585;SDS011;53444;45.822;16.092;2023-04-03T13:44:33;4.40;;;2.47;;
66585;SDS011;53444;45.822;16.092;2023-04-03T13:47:14;12.93;;;4.72;;
66585;SDS011;53444;45.822;16.092;2023-04-03T13:49:43;5.88;;;2.38;;
66585;SDS011;53444;45.822;16.092;2023-04-03T13:52:22;7.97;;;3.80;;
66585;SDS011;53444;45.822;16.092;2023-04-03T13:54:53;8.60;;;4.60;;
66585;SDS011;53444;45.822;16.092;2023-04-03T13:57:22;5.88;;;3.20;;
66585;SDS011;53444;45.822;16.092;2023-04-03T13:59:49;3.70;;;2.28;;
66585;SDS011;53444;45.822;16.092;2023-04-03T14:02:18;4.43;;;2.30;;
66585;SDS011;53444;45.822;16.092;2023-04-03T14:04:49;4.00;;;3.00;;
66585;SDS011;53444;45.822;16.092;2023-04-03T14:07:22;3.65;;;2.50;;
66585;SDS011;53444;45.822;16.092;2023-04-03T14:09:50;4.47;;;2.97;;
66585;SDS011;53444;45.822;16.092;2023-04-03T14:12:18;4.28;;;2.63;;
66585;SDS011;53444;45.822;16.092;2023-04-03T14:14:47;2.92;;;2.33;;
66585;SDS011;53444;45.822;16.092;2023-04-03T14:17:15;3.17;;;2.30;;
66585;SDS011;53444;45.822;16.092;2023-04-03T14:19:45;4.15;;;2.45;;
66585;SDS011;53444;45.822;16.092;2023-04-03T14:22:14;3.95;;;3.00;;
66585;SDS011;53444;45.822;16.092;2023-04-03T14:24:50;2.85;;;2.08;;
66585;SDS011;53444;45.822;16.092;2023-04-03T14:27:19;5.30;;;2.58;;
66585;SDS011;53444;45.822;16.092;2023-04-03T14:29:47;3.55;;;2.50;;
66585;SDS011;53444;45.822;16.092;2023-04-03T14:32:15;3.92;;;2.05;;
66585;SDS011;53444;45.822;16.092;2023-04-03T14:34:42;3.40;;;2.30;;
66585;SDS011;53444;45.822;16.092;2023-04-03T14:37:10;3.78;;;2.72;;
66585;SDS011;53444;45.822;16.092;2023-04-03T14:39:38;4.93;;;2.90;;
66585;SDS011;53444;45.822;16.092;2023-04-03T14:42:09;3.85;;;2.50;;
66585;SDS011;53444;45.822;16.092;2023-04-03T14:44:38;4.55;;;2.40;;
66585;SDS011;53444;45.822;16.092;2023-04-03T14:47:08;3.30;;;2.40;;
66585;SDS011;53444;45.822;16.092;2023-04-03T14:49:36;4.20;;;2.85;;
66585;SDS011;53444;45.822;16.092;2023-04-03T14:52:03;4.72;;;2.25;;
66585;SDS011;53444;45.822;16.092;2023-04-03T14:54:29;4.82;;;3.00;;
66585;SDS011;53444;45.822;16.092;2023-04-03T15:00:15;6.43;;;3.90;;
66585;SDS011;53444;45.822;16.092;2023-04-03T15:02:46;4.50;;;3.57;;
66585;SDS011;53444;45.822;16.092;2023-04-03T15:05:13;3.95;;;2.72;;
66585;SDS011;53444;45.822;16.092;2023-04-03T15:07:42;8.40;;;4.63;;
66585;SDS011;53444;45.822;16.092;2023-04-03T15:10:16;4.90;;;3.25;;
66585;SDS011;53444;45.822;16.092;2023-04-03T15:12:45;2.92;;;2.15;;
66585;SDS011;53444;45.822;16.092;2023-04-03T15:15:14;4.33;;;3.00;;
66585;SDS011;53444;45.822;16.092;2023-04-03T15:17:41;7.03;;;3.95;;
66585;SDS011;53444;45.822;16.092;2023-04-03T15:20:12;5.70;;;2.53;;
66585;SDS011;53444;45.822;16.092;2023-04-03T15:22:42;4.75;;;3.13;;
66585;SDS011;53444;45.822;16.092;2023-04-03T15:25:08;9.32;;;4.82;;
66585;SDS011;53444;45.822;16.092;2023-04-03T15:27:35;5.87;;;3.60;;
66585;SDS011;53444;45.822;16.092;2023-04-03T15:30:03;3.63;;;2.50;;
66585;SDS011;53444;45.822;16.092;2023-04-03T15:32:32;4.22;;;2.35;;
66585;SDS011;53444;45.822;16.092;2023-04-03T15:35:00;3.95;;;2.55;;
66585;SDS011;53444;45.822;16.092;2023-04-03T15:37:27;4.10;;;2.50;;
66585;SDS011;53444;45.822;16.092;2023-04-03T15:39:54;4.05;;;2.80;;
66585;SDS011;53444;45.822;16.092;2023-04-03T15:42:25;3.40;;;2.50;;